createdAt,value
2022-10-28T00:01:06.448Z,4.37
2022-10-28T00:03:32.927Z,5.03
2022-10-28T00:06:07.508Z,4.40
2022-10-28T00:08:34.039Z,4.73
2022-10-28T00:11:09.709Z,4.00
2022-10-28T00:13:36.914Z,4.27
2022-10-28T00:16:31.250Z,5.10
2022-10-28T00:18:58.214Z,4.33
2022-10-28T00:21:27.277Z,4.80
2022-10-28T00:23:54.190Z,4.60
2022-10-28T00:26:29.347Z,4.37
2022-10-28T00:28:59.222Z,4.97
2022-10-28T00:31:28.261Z,4.43
2022-10-28T00:33:55.329Z,4.07
2022-10-28T00:36:23.148Z,4.47
2022-10-28T00:38:51.246Z,4.93
2022-10-28T00:41:26.976Z,3.93
2022-10-28T00:43:54.712Z,3.27
2022-10-28T00:46:37.836Z,3.63
2022-10-28T00:49:27.377Z,4.20
2022-10-28T00:51:59.888Z,4.10
2022-10-28T00:54:27.294Z,4.07
2022-10-28T00:56:55.285Z,4.13
2022-10-28T00:59:24.206Z,4.00
2022-10-28T01:01:50.546Z,4.70
2022-10-28T01:04:17.064Z,4.03
2022-10-28T01:06:43.397Z,4.20
2022-10-28T01:09:09.697Z,4.50
2022-10-28T01:11:42.843Z,4.50
2022-10-28T01:14:09.058Z,4.13
2022-10-28T01:16:35.279Z,4.57
2022-10-28T01:19:19.937Z,3.40
2022-10-28T01:22:05.738Z,4.33
2022-10-28T01:24:59.079Z,3.87
2022-10-28T01:27:40.555Z,3.70
2022-10-28T01:30:11.322Z,4.10
2022-10-28T01:32:45.989Z,4.10
2022-10-28T01:35:22.417Z,4.07
2022-10-28T01:38:08.327Z,4.00
2022-10-28T01:41:13.874Z,4.27
2022-10-28T01:44:01.740Z,3.63
2022-10-28T01:46:34.938Z,4.20
2022-10-28T01:49:09.830Z,3.13
2022-10-28T01:51:42.856Z,3.90
2022-10-28T01:54:12.868Z,4.10
2022-10-28T01:56:41.229Z,5.30
2022-10-28T01:59:13.132Z,4.40
2022-10-28T02:01:39.588Z,3.70
2022-10-28T02:04:06.032Z,3.87
2022-10-28T02:06:34.648Z,4.50
2022-10-28T02:09:06.287Z,3.50
2022-10-28T02:11:53.863Z,3.67
2022-10-28T02:14:37.104Z,4.73
2022-10-28T02:17:12.383Z,4.17
2022-10-28T02:20:01.004Z,4.77
2022-10-28T02:22:46.486Z,4.13
2022-10-28T02:25:36.724Z,4.40
2022-10-28T02:28:06.053Z,3.60
2022-10-28T02:30:34.467Z,3.60
2022-10-28T02:33:03.778Z,3.67
2022-10-28T02:35:38.531Z,3.80
2022-10-28T02:38:07.539Z,4.07
2022-10-28T02:40:34.804Z,3.60
2022-10-28T02:43:03.689Z,4.00
2022-10-28T02:45:35.938Z,3.53
2022-10-28T02:48:08.534Z,4.73
2022-10-28T02:50:36.281Z,4.23
2022-10-28T02:53:08.500Z,4.70
2022-10-28T02:55:39.932Z,4.10
2022-10-28T02:58:06.452Z,6.43
2022-10-28T03:00:32.783Z,4.80
2022-10-28T03:02:59.421Z,4.97
2022-10-28T03:05:25.742Z,4.30
2022-10-28T03:07:52.168Z,5.80
2022-10-28T03:10:18.677Z,4.63
2022-10-28T03:12:45.019Z,4.33
2022-10-28T03:15:11.532Z,3.70
2022-10-28T03:17:37.837Z,4.67
2022-10-28T03:20:04.585Z,3.90
2022-10-28T03:22:30.963Z,4.73
2022-10-28T03:24:57.247Z,6.83
2022-10-28T03:27:23.681Z,5.93
2022-10-28T03:29:49.989Z,5.07
2022-10-28T03:32:16.312Z,4.33
2022-10-28T03:34:42.626Z,4.30
2022-10-28T03:37:09.185Z,4.73
2022-10-28T03:39:35.507Z,4.53
2022-10-28T03:42:01.853Z,3.90
2022-10-28T03:44:28.126Z,4.43
2022-10-28T03:46:54.443Z,4.47
2022-10-28T03:49:20.821Z,4.43
2022-10-28T03:51:47.203Z,5.37
2022-10-28T03:54:13.525Z,5.23
2022-10-28T03:56:40.476Z,4.60
2022-10-28T03:59:08.739Z,4.37
2022-10-28T04:01:35.197Z,4.43
2022-10-28T04:04:01.636Z,4.73
2022-10-28T04:06:27.932Z,5.70
2022-10-28T04:08:54.306Z,5.83
2022-10-28T04:11:20.765Z,4.83
2022-10-28T04:13:47.116Z,4.23
2022-10-28T04:16:13.359Z,4.93
2022-10-28T04:18:39.660Z,4.97
2022-10-28T04:21:05.969Z,4.17
2022-10-28T04:23:32.218Z,4.53
2022-10-28T04:25:58.527Z,5.03
2022-10-28T04:28:24.961Z,4.20
2022-10-28T04:30:51.311Z,4.43
2022-10-28T04:33:17.685Z,4.20
2022-10-28T04:35:44.695Z,4.13
2022-10-28T04:38:11.512Z,4.20
2022-10-28T04:40:37.955Z,4.07
2022-10-28T04:43:07.406Z,4.07
2022-10-28T04:45:36.144Z,4.40
2022-10-28T04:48:02.560Z,4.27
2022-10-28T04:50:28.916Z,3.97
2022-10-28T04:52:55.582Z,4.83
2022-10-28T04:55:22.121Z,3.90
2022-10-28T04:57:56.587Z,4.97
2022-10-28T05:00:23.195Z,3.70
2022-10-28T05:02:49.577Z,4.30
2022-10-28T05:07:43.233Z,4.00
2022-10-28T05:10:09.921Z,5.47
2022-10-28T05:12:36.163Z,4.67
2022-10-28T05:15:02.490Z,5.20
2022-10-28T05:17:28.813Z,4.23
2022-10-28T05:19:55.124Z,4.67
2022-10-28T05:22:21.415Z,4.40
2022-10-28T05:24:47.717Z,5.80
2022-10-28T05:27:15.950Z,4.50
2022-10-28T05:29:42.260Z,4.77
2022-10-28T05:32:08.591Z,4.73
2022-10-28T05:34:34.870Z,5.20
2022-10-28T05:37:01.186Z,4.80
2022-10-28T05:39:27.428Z,5.63
2022-10-28T05:41:53.731Z,4.53
2022-10-28T05:44:20.035Z,5.07
2022-10-28T05:46:46.271Z,5.40
2022-10-28T05:49:12.499Z,5.70
2022-10-28T05:51:38.809Z,5.20
2022-10-28T05:54:05.152Z,6.00
2022-10-28T05:56:31.461Z,6.03
2022-10-28T05:58:57.793Z,5.97
2022-10-28T06:01:24.058Z,5.63
2022-10-28T06:03:50.340Z,5.87
2022-10-28T06:06:16.613Z,4.67
2022-10-28T06:08:42.938Z,6.17
2022-10-28T06:11:07.711Z,5.60
2022-10-28T06:13:34.027Z,6.30
2022-10-28T06:16:00.419Z,6.53
2022-10-28T06:18:26.735Z,6.13
2022-10-28T06:20:54.200Z,6.53
2022-10-28T06:23:21.209Z,6.50
2022-10-28T06:25:47.704Z,5.13
2022-10-28T06:28:14.085Z,6.37
2022-10-28T06:30:40.450Z,6.53
2022-10-28T06:33:07.202Z,6.43
2022-10-28T06:35:33.465Z,5.73
2022-10-28T06:37:59.810Z,6.80
2022-10-28T06:40:26.382Z,7.73
2022-10-28T06:42:57.476Z,8.03
2022-10-28T06:45:24.193Z,8.53
2022-10-28T06:47:56.360Z,7.83
2022-10-28T06:50:22.604Z,7.97
2022-10-28T06:52:48.905Z,8.33
2022-10-28T06:55:15.206Z,8.00
2022-10-28T06:57:41.511Z,8.53
2022-10-28T07:00:08.722Z,8.33
2022-10-28T07:02:35.038Z,8.23
2022-10-28T07:05:01.380Z,7.87
2022-10-28T07:07:27.691Z,7.20
2022-10-28T07:09:53.986Z,8.63
2022-10-28T07:12:20.234Z,7.80
2022-10-28T07:14:46.565Z,7.00
2022-10-28T07:17:12.878Z,7.67
2022-10-28T07:19:39.193Z,7.60
2022-10-28T07:22:05.744Z,8.10
2022-10-28T07:24:32.056Z,6.97
2022-10-28T07:26:58.399Z,7.20
2022-10-28T07:29:24.707Z,6.97
2022-10-28T07:31:54.566Z,6.60
2022-10-28T07:34:25.981Z,5.43
2022-10-28T07:36:54.301Z,5.33
2022-10-28T07:39:21.230Z,5.10
2022-10-28T07:41:47.966Z,6.53
2022-10-28T07:44:14.422Z,4.77
2022-10-28T07:46:41.256Z,4.13
2022-10-28T07:49:07.874Z,4.90
2022-10-28T07:51:34.283Z,4.33
2022-10-28T07:54:00.687Z,4.63
2022-10-28T07:56:27.092Z,4.80
2022-10-28T07:58:53.350Z,4.80
2022-10-28T08:01:20.422Z,5.00
2022-10-28T08:03:49.539Z,5.53
2022-10-28T08:06:20.798Z,5.00
2022-10-28T08:08:47.648Z,5.70
2022-10-28T08:11:18.979Z,4.97
2022-10-28T08:13:46.061Z,5.70
2022-10-28T08:16:12.479Z,4.90
2022-10-28T08:18:39.309Z,5.23
2022-10-28T08:21:08.003Z,5.17
2022-10-28T08:23:34.734Z,4.83
2022-10-28T08:26:01.078Z,5.33
2022-10-28T08:28:28.050Z,4.53
2022-10-28T08:31:08.660Z,4.60
2022-10-28T08:33:36.137Z,5.23
2022-10-28T08:36:02.407Z,4.73
2022-10-28T08:38:28.707Z,4.10
2022-10-28T08:41:32.793Z,4.90
2022-10-28T08:44:08.233Z,4.87
2022-10-28T08:46:37.484Z,5.03
2022-10-28T08:49:11.923Z,4.27
2022-10-28T08:51:40.927Z,4.53
2022-10-28T08:54:16.796Z,3.70
2022-10-28T08:56:46.120Z,5.87
2022-10-28T08:59:24.125Z,4.43
2022-10-28T09:01:53.073Z,4.63
2022-10-28T09:04:39.306Z,4.77
2022-10-28T09:07:10.483Z,5.00
2022-10-28T09:09:36.790Z,4.50
2022-10-28T09:12:29.690Z,4.27
2022-10-28T09:15:17.920Z,4.30
2022-10-28T09:20:53.474Z,4.27
2022-10-28T09:23:49.850Z,5.37
2022-10-28T09:26:21.916Z,3.93
2022-10-28T09:31:42.521Z,5.00
2022-10-28T09:34:27.566Z,4.50
2022-10-28T09:37:16.764Z,4.53
2022-10-28T09:39:47.314Z,4.83
2022-10-28T09:42:22.518Z,4.13
2022-10-28T09:44:58.352Z,4.17
2022-10-28T09:47:37.128Z,4.27
2022-10-28T09:50:12.335Z,4.47
2022-10-28T09:53:02.951Z,3.87
2022-10-28T09:55:29.352Z,3.97
2022-10-28T09:57:56.142Z,4.97
2022-10-28T10:00:22.965Z,4.77
2022-10-28T10:02:52.872Z,4.40
2022-10-28T10:05:19.430Z,3.80
2022-10-28T10:07:59.121Z,4.30
2022-10-28T10:10:27.610Z,4.30
2022-10-28T10:12:59.444Z,4.90
2022-10-28T10:15:42.490Z,4.53
2022-10-28T10:18:15.603Z,4.50
2022-10-28T10:20:48.706Z,4.07
2022-10-28T10:23:34.926Z,4.13
2022-10-28T10:26:11.119Z,3.83
2022-10-28T10:28:43.745Z,4.10
2022-10-28T10:31:18.970Z,3.97
2022-10-28T10:33:49.882Z,4.07
2022-10-28T10:36:17.664Z,4.68
2022-10-28T10:38:48.187Z,3.73
2022-10-28T10:41:37.543Z,4.80
2022-10-28T10:44:16.076Z,4.53
2022-10-28T10:46:42.336Z,3.88
2022-10-28T10:49:14.746Z,4.43
2022-10-28T10:51:51.781Z,3.65
2022-10-28T10:54:19.076Z,4.22
2022-10-28T10:56:45.376Z,5.32
2022-10-28T10:59:37.802Z,3.83
2022-10-28T11:02:04.834Z,3.58
2022-10-28T11:04:31.127Z,4.82
2022-10-28T11:06:58.047Z,4.18
2022-10-28T11:09:27.110Z,4.80
2022-10-28T11:11:55.713Z,5.63
2022-10-28T11:14:31.218Z,3.92
2022-10-28T11:16:57.443Z,4.35
2022-10-28T11:19:37.660Z,4.00
2022-10-28T11:22:16.283Z,4.45
2022-10-28T11:25:21.554Z,3.95
2022-10-28T11:28:19.965Z,4.40
2022-10-28T11:33:39.137Z,4.38
2022-10-28T11:36:11.736Z,4.47
2022-10-28T11:39:12.152Z,5.00
2022-10-28T11:41:44.381Z,4.15
2022-10-28T11:47:09.286Z,4.78
2022-10-28T11:50:05.470Z,5.18
2022-10-28T11:52:45.283Z,4.55
2022-10-28T11:55:30.219Z,4.13
2022-10-28T11:58:02.291Z,4.40
2022-10-28T12:00:42.049Z,4.40
2022-10-28T12:03:42.083Z,4.85
2022-10-28T12:06:17.275Z,5.03
2022-10-28T12:09:18.119Z,5.05
2022-10-28T12:12:29.516Z,4.03
2022-10-28T12:15:01.393Z,4.75
2022-10-28T12:17:43.860Z,4.30
2022-10-28T12:20:20.591Z,4.93
2022-10-28T12:22:50.345Z,4.35
2022-10-28T12:25:25.311Z,5.00
2022-10-28T12:27:57.124Z,4.78
2022-10-28T12:30:27.157Z,5.20
2022-10-28T12:32:59.855Z,4.90
2022-10-28T12:35:33.871Z,4.80
2022-10-28T12:38:00.145Z,4.03
2022-10-28T12:40:29.155Z,4.57
2022-10-28T12:43:01.725Z,4.93
2022-10-28T12:45:31.214Z,4.60
2022-10-28T12:48:19.626Z,4.43
2022-10-28T12:50:51.890Z,5.22
2022-10-28T12:53:40.412Z,5.07
2022-10-28T12:56:18.486Z,4.03
2022-10-28T12:58:53.605Z,4.18
2022-10-28T13:01:24.288Z,4.25
2022-10-28T13:03:50.839Z,4.85
2022-10-28T13:09:19.935Z,4.35
2022-10-28T13:12:26.578Z,4.80
2022-10-28T13:15:17.368Z,3.97
2022-10-28T13:18:08.720Z,5.43
2022-10-28T13:20:48.039Z,4.70
2022-10-28T13:23:32.965Z,4.22
2022-10-28T13:26:00.851Z,4.28
2022-10-28T13:28:32.393Z,4.43
2022-10-28T13:30:59.888Z,4.72
2022-10-28T13:33:27.477Z,4.28
2022-10-28T13:38:26.715Z,4.18
2022-10-28T13:40:59.207Z,5.00
2022-10-28T13:43:44.123Z,4.30
2022-10-28T13:46:10.442Z,5.30
2022-10-28T13:48:42.817Z,4.88
2022-10-28T13:51:09.059Z,3.95
2022-10-28T13:53:39.687Z,4.75
2022-10-28T13:56:36.645Z,4.63
2022-10-28T13:59:16.085Z,5.32
2022-10-28T14:01:56.764Z,5.28
2022-10-28T14:04:36.205Z,5.32
2022-10-28T14:07:12.470Z,4.97
2022-10-28T14:09:41.542Z,5.60
2022-10-28T14:12:17.431Z,5.03
2022-10-28T14:15:04.340Z,4.72
2022-10-28T14:17:40.551Z,5.30
2022-10-28T14:20:27.243Z,5.28
2022-10-28T14:22:54.242Z,4.38
2022-10-28T14:25:43.485Z,5.35
2022-10-28T14:28:27.908Z,5.03
2022-10-28T14:31:12.631Z,5.75
2022-10-28T14:33:45.412Z,4.30
2022-10-28T14:36:11.682Z,5.10
2022-10-28T14:38:49.366Z,5.25
2022-10-28T14:41:33.962Z,5.13
2022-10-28T14:44:21.747Z,4.80
2022-10-28T14:46:48.036Z,4.80
2022-10-28T14:49:21.040Z,8.43
2022-10-28T14:51:49.652Z,5.33
2022-10-28T14:54:22.981Z,4.43
2022-10-28T14:56:56.581Z,4.50
2022-10-28T14:59:29.088Z,4.43
2022-10-28T15:02:18.506Z,5.00
2022-10-28T15:04:47.422Z,5.40
2022-10-28T15:07:20.355Z,6.57
2022-10-28T15:09:53.108Z,5.87
2022-10-28T15:12:21.448Z,6.23
2022-10-28T15:14:47.709Z,5.93
2022-10-28T15:17:29.241Z,5.87
2022-10-28T15:19:56.856Z,5.47
2022-10-28T15:22:24.239Z,5.73
2022-10-28T15:25:00.950Z,5.27
2022-10-28T15:27:28.598Z,5.13
2022-10-28T15:29:55.804Z,4.37
2022-10-28T15:32:22.071Z,4.33
2022-10-28T15:34:49.126Z,4.70
2022-10-28T15:37:21.285Z,4.77
2022-10-28T15:39:53.241Z,5.23
2022-10-28T15:42:37.455Z,5.50
2022-10-28T15:45:04.425Z,4.90
2022-10-28T15:47:32.763Z,5.60
2022-10-28T15:50:03.565Z,5.13
2022-10-28T15:52:37.759Z,4.80
2022-10-28T15:55:41.292Z,4.83
2022-10-28T15:58:18.894Z,5.13
2022-10-28T16:00:57.434Z,4.47
2022-10-28T16:03:40.494Z,4.47
2022-10-28T16:06:07.711Z,5.33
2022-10-28T16:08:34.154Z,4.90
2022-10-28T16:11:02.137Z,4.27
2022-10-28T16:13:31.273Z,5.40
2022-10-28T16:16:01.906Z,5.50
2022-10-28T16:18:31.096Z,6.47
2022-10-28T16:21:00.115Z,5.47
2022-10-28T16:23:34.020Z,5.57
2022-10-28T16:26:00.296Z,5.47
2022-10-28T16:28:27.191Z,5.37
2022-10-28T16:30:54.373Z,4.83
2022-10-28T16:33:26.656Z,5.17
2022-10-28T16:35:52.902Z,5.13
2022-10-28T16:38:19.846Z,5.03
2022-10-28T16:40:51.422Z,4.87
2022-10-28T16:43:19.770Z,5.60
2022-10-28T16:45:47.561Z,4.60
2022-10-28T16:48:16.087Z,4.40
2022-10-28T16:50:45.372Z,4.30
2022-10-28T16:53:12.759Z,5.33
2022-10-28T16:55:39.673Z,4.60
2022-10-28T16:58:06.575Z,5.37
2022-10-28T17:00:33.065Z,5.30
2022-10-28T17:03:00.200Z,6.07
2022-10-28T17:05:27.031Z,5.80
2022-10-28T17:07:56.681Z,5.17
2022-10-28T17:10:23.638Z,5.43
2022-10-28T17:12:50.504Z,5.17
2022-10-28T17:15:17.566Z,6.40
2022-10-28T17:17:43.950Z,6.40
2022-10-28T17:20:10.886Z,5.83
2022-10-28T17:22:39.688Z,6.00
2022-10-28T17:25:06.200Z,5.87
2022-10-28T17:27:32.462Z,5.67
2022-10-28T17:29:59.050Z,6.10
2022-10-28T17:32:25.459Z,5.80
2022-10-28T17:34:51.756Z,5.77
2022-10-28T17:37:17.973Z,6.00
2022-10-28T17:39:44.317Z,5.17
2022-10-28T17:42:10.743Z,5.60
2022-10-28T17:44:37.085Z,5.17
2022-10-28T17:47:03.422Z,5.50
2022-10-28T17:49:30.631Z,5.67
2022-10-28T17:51:57.004Z,5.03
2022-10-28T17:56:50.549Z,5.43
2022-10-28T17:59:18.668Z,6.03
2022-10-28T18:01:45.053Z,5.40
2022-10-28T18:04:12.029Z,4.93
2022-10-28T18:06:38.371Z,5.97
2022-10-28T18:09:04.776Z,5.17
2022-10-28T18:11:33.103Z,5.80
2022-10-28T18:13:59.416Z,6.43
2022-10-28T18:16:27.710Z,6.17
2022-10-28T18:18:55.344Z,6.40
2022-10-28T18:21:22.481Z,6.00
2022-10-28T18:23:52.639Z,5.70
2022-10-28T18:26:19.561Z,6.37
2022-10-28T18:28:45.959Z,5.17
2022-10-28T18:31:17.262Z,6.07
2022-10-28T18:33:45.279Z,5.70
2022-10-28T18:36:14.752Z,5.73
2022-10-28T18:38:41.154Z,5.70
2022-10-28T18:41:16.482Z,6.80
2022-10-28T18:43:43.279Z,6.73
2022-10-28T18:46:10.019Z,6.17
2022-10-28T18:48:36.288Z,6.80
2022-10-28T18:51:06.844Z,7.07
2022-10-28T18:53:37.066Z,5.67
2022-10-28T18:56:06.050Z,6.47
2022-10-28T18:58:32.622Z,8.00
2022-10-28T19:01:20.610Z,5.97
2022-10-28T19:03:48.134Z,6.30
2022-10-28T19:06:15.580Z,5.60
2022-10-28T19:08:41.997Z,6.97
2022-10-28T19:11:10.243Z,6.93
2022-10-28T19:13:37.691Z,5.93
2022-10-28T19:16:04.180Z,6.57
2022-10-28T19:18:35.182Z,6.30
2022-10-28T19:21:04.122Z,7.67
2022-10-28T19:23:31.905Z,7.03
2022-10-28T19:25:58.282Z,5.87
2022-10-28T19:28:24.837Z,6.73
2022-10-28T19:30:59.315Z,6.60
2022-10-28T19:33:26.862Z,6.73
2022-10-28T19:35:53.106Z,6.80
2022-10-28T19:38:19.487Z,6.63
2022-10-28T19:40:45.788Z,5.43
2022-10-28T19:43:12.094Z,6.53
2022-10-28T19:45:38.432Z,6.57
2022-10-28T19:48:04.971Z,7.93
2022-10-28T19:50:31.280Z,7.33
2022-10-28T19:52:57.568Z,6.20
2022-10-28T19:55:23.913Z,6.23
2022-10-28T19:57:52.796Z,6.60
2022-10-28T20:00:19.640Z,6.53
2022-10-28T20:02:47.244Z,5.80
2022-10-28T20:05:13.597Z,7.13
2022-10-28T20:07:39.827Z,7.13
2022-10-28T20:10:06.659Z,6.87
2022-10-28T20:12:32.902Z,6.67
2022-10-28T20:14:59.283Z,6.13
2022-10-28T20:17:25.631Z,6.07
2022-10-28T20:19:51.997Z,6.63
2022-10-28T20:22:18.313Z,6.10
2022-10-28T20:24:44.595Z,6.97
2022-10-28T20:27:10.887Z,6.87
2022-10-28T20:29:37.206Z,7.07
2022-10-28T20:32:03.784Z,6.47
2022-10-28T20:34:30.088Z,7.67
2022-10-28T20:36:56.331Z,6.70
2022-10-28T20:39:22.814Z,6.73
2022-10-28T20:41:49.921Z,6.43
2022-10-28T20:44:16.720Z,7.07
2022-10-28T20:46:45.018Z,7.43
2022-10-28T20:49:13.021Z,6.53
2022-10-28T20:51:39.546Z,7.53
2022-10-28T20:54:06.306Z,7.80
2022-10-28T20:56:33.640Z,7.67
2022-10-28T20:59:00.475Z,7.30
2022-10-28T21:01:32.908Z,7.37
2022-10-28T21:04:01.544Z,6.97
2022-10-28T21:06:28.768Z,8.23
2022-10-28T21:08:56.489Z,7.27
2022-10-28T21:11:24.366Z,7.40
2022-10-28T21:13:55.564Z,6.97
2022-10-28T21:16:23.083Z,7.67
2022-10-28T21:18:50.065Z,6.77
2022-10-28T21:21:18.158Z,6.47
2022-10-28T21:23:44.665Z,8.17
2022-10-28T21:26:12.573Z,7.50
2022-10-28T21:28:41.364Z,6.07
2022-10-28T21:31:09.045Z,7.47
2022-10-28T21:33:36.035Z,7.40
2022-10-28T21:36:08.121Z,7.33
2022-10-28T21:38:35.203Z,6.47
2022-10-28T21:41:07.427Z,7.93
2022-10-28T21:43:36.458Z,7.97
2022-10-28T21:46:03.599Z,7.47
2022-10-28T21:48:30.389Z,7.27
2022-10-28T21:50:59.866Z,7.30
2022-10-28T21:53:26.734Z,7.47
2022-10-28T21:55:55.472Z,7.43
2022-10-28T21:58:21.985Z,7.23
2022-10-28T22:00:48.332Z,7.60
2022-10-28T22:03:14.939Z,7.33
2022-10-28T22:05:49.615Z,6.97
2022-10-28T22:08:16.670Z,7.73
2022-10-28T22:10:43.268Z,8.20
2022-10-28T22:13:09.577Z,8.67
2022-10-28T22:15:35.895Z,8.20
2022-10-28T22:18:02.216Z,7.43
2022-10-28T22:20:28.854Z,8.23
2022-10-28T22:22:55.480Z,7.20
2022-10-28T22:25:22.037Z,8.27
2022-10-28T22:27:48.329Z,9.30
2022-10-28T22:30:14.762Z,8.30
2022-10-28T22:32:41.091Z,8.57
2022-10-28T22:35:07.966Z,7.70
2022-10-28T22:37:34.288Z,8.20
2022-10-28T22:40:00.595Z,7.63
2022-10-28T22:42:26.825Z,7.43
2022-10-28T22:44:53.131Z,7.77
2022-10-28T22:47:19.428Z,7.53
2022-10-28T22:49:45.765Z,7.70
2022-10-28T22:52:12.006Z,8.13
2022-10-28T22:54:38.304Z,8.27
2022-10-28T22:57:04.592Z,8.20
2022-10-28T22:59:30.897Z,8.33
2022-10-28T23:01:57.246Z,8.23
2022-10-28T23:04:23.639Z,7.77
2022-10-28T23:06:49.941Z,8.10
2022-10-28T23:09:16.624Z,7.97
2022-10-28T23:11:42.876Z,8.23
2022-10-28T23:14:09.188Z,8.17
2022-10-28T23:16:35.498Z,8.27
2022-10-28T23:19:01.909Z,8.10
2022-10-28T23:21:28.684Z,8.97
2022-10-28T23:23:59.506Z,7.30
2022-10-28T23:26:26.523Z,8.20
2022-10-28T23:28:55.433Z,8.40
2022-10-28T23:31:22.626Z,7.20
2022-10-28T23:33:49.409Z,7.27
2022-10-28T23:36:16.587Z,8.13
2022-10-28T23:38:43.021Z,8.57
2022-10-28T23:41:12.301Z,7.00
2022-10-28T23:43:38.688Z,8.13
2022-10-28T23:46:05.524Z,7.67
2022-10-28T23:48:31.988Z,8.30
2022-10-28T23:50:58.498Z,7.20
2022-10-28T23:53:25.310Z,7.20
2022-10-28T23:55:52.585Z,7.13
2022-10-28T23:58:21.344Z,6.43
